createdAt,value
2023-01-01T00:01:17.395Z,100193.59
2023-01-01T00:04:22.068Z,100197.34
2023-01-01T00:07:26.778Z,100196.59
2023-01-01T00:10:31.434Z,100198.28
2023-01-01T00:13:41.780Z,100188.19
2023-01-01T00:16:46.268Z,100194.09
2023-01-01T00:19:50.937Z,100188.94
2023-01-01T00:22:56.325Z,100188.00
2023-01-01T00:26:02.637Z,100190.97
2023-01-01T00:29:07.503Z,100193.28
2023-01-01T00:32:15.455Z,100210.84
2023-01-01T00:35:25.688Z,100198.47
2023-01-01T00:38:30.273Z,100187.59
2023-01-01T00:41:34.648Z,100199.09
2023-01-01T00:44:39.084Z,100195.94
2023-01-01T00:47:43.353Z,100189.09
2023-01-01T00:50:48.242Z,100189.09
2023-01-01T00:53:52.594Z,100190.13
2023-01-01T00:56:57.684Z,100201.75
2023-01-01T01:00:02.410Z,100184.13
2023-01-01T01:03:06.824Z,100195.94
2023-01-01T01:06:13.029Z,100197.00
2023-01-01T01:09:17.042Z,100201.53
2023-01-01T01:12:20.971Z,100196.69
2023-01-01T01:15:25.863Z,100194.78
2023-01-01T01:18:30.469Z,100203.22
2023-01-01T01:21:35.450Z,100214.06
2023-01-01T01:24:39.464Z,100189.53
2023-01-01T01:27:43.955Z,100206.59
2023-01-01T01:30:48.434Z,100186.59
2023-01-01T01:33:53.337Z,100196.59
2023-01-01T01:36:57.587Z,100179.19
2023-01-01T01:40:02.352Z,100190.38
2023-01-01T01:43:32.041Z,100193.50
2023-01-01T01:46:43.174Z,100196.91
2023-01-01T01:49:49.755Z,100217.53
2023-01-01T01:53:12.135Z,100206.91
2023-01-01T01:56:24.192Z,100190.97
2023-01-01T01:59:38.411Z,100193.41
2023-01-01T02:02:49.477Z,100215.25
2023-01-01T02:05:54.714Z,100235.47
2023-01-01T02:09:04.077Z,100236.34
2023-01-01T02:12:08.498Z,100227.16
2023-01-01T02:15:13.517Z,100234.53
2023-01-01T02:18:29.675Z,100247.72
2023-01-01T02:21:59.854Z,100270.91
2023-01-01T02:25:35.766Z,100259.28
2023-01-01T02:29:06.584Z,100269.72
2023-01-01T02:32:35.307Z,100278.59
2023-01-01T02:35:46.526Z,100272.16
2023-01-01T02:38:55.651Z,100270.25
2023-01-01T02:42:03.141Z,100265.94
2023-01-01T02:45:08.564Z,100267.09
2023-01-01T02:48:41.923Z,100274.78
2023-01-01T02:52:08.213Z,100273.00
2023-01-01T02:55:53.504Z,100290.47
2023-01-01T02:59:50.512Z,100278.91
2023-01-01T03:03:25.114Z,100286.47
2023-01-01T03:07:12.597Z,100281.09
2023-01-01T03:10:33.198Z,100287.63
2023-01-01T03:13:49.989Z,100292.56
2023-01-01T03:17:12.234Z,100289.94
2023-01-01T03:20:24.765Z,100285.22
2023-01-01T03:23:50.040Z,100306.91
2023-01-01T03:27:02.256Z,100314.59
2023-01-01T03:30:11.894Z,100313.66
2023-01-01T03:33:49.287Z,100318.28
2023-01-01T03:36:59.325Z,100324.94
2023-01-01T03:40:05.883Z,100336.44
2023-01-01T03:43:21.260Z,100337.97
2023-01-01T03:46:30.729Z,100350.75
2023-01-01T03:49:35.837Z,100354.94
2023-01-01T03:53:08.083Z,100372.56
2023-01-01T03:56:30.090Z,100386.03
2023-01-01T04:00:00.702Z,100404.50
2023-01-01T04:03:07.421Z,100404.88
2023-01-01T04:06:12.550Z,100420.03
2023-01-01T04:09:23.182Z,100407.16
2023-01-01T04:12:29.841Z,100415.03
2023-01-01T04:15:36.188Z,100421.72
2023-01-01T04:18:40.874Z,100406.56
2023-01-01T04:21:44.802Z,100396.25
2023-01-01T04:24:49.034Z,100400.06
2023-01-01T04:27:53.339Z,100397.44
2023-01-01T04:31:02.796Z,100388.50
2023-01-01T04:34:07.553Z,100394.34
2023-01-01T04:37:13.598Z,100408.19
2023-01-01T04:40:18.366Z,100414.66
2023-01-01T04:43:22.628Z,100427.72
2023-01-01T04:46:26.685Z,100425.34
2023-01-01T04:49:30.957Z,100428.53
2023-01-01T04:52:35.360Z,100421.34
2023-01-01T04:55:39.784Z,100426.31
2023-01-01T04:58:44.717Z,100429.91
2023-01-01T05:01:49.428Z,100434.53
2023-01-01T05:04:54.025Z,100437.59
2023-01-01T05:07:58.286Z,100435.88
2023-01-01T05:11:14.480Z,100435.22
2023-01-01T05:14:18.916Z,100430.34
2023-01-01T05:17:23.151Z,100436.84
2023-01-01T05:20:27.755Z,100450.56
2023-01-01T05:23:32.735Z,100456.66
2023-01-01T05:26:41.932Z,100457.31
2023-01-01T05:29:46.723Z,100466.25
2023-01-01T05:32:51.011Z,100467.66
2023-01-01T05:35:55.329Z,100467.47
2023-01-01T05:39:00.302Z,100464.91
2023-01-01T05:42:04.723Z,100473.28
2023-01-01T05:45:09.648Z,100485.31
2023-01-01T05:48:14.222Z,100466.53
2023-01-01T05:51:27.520Z,100468.59
2023-01-01T05:54:32.076Z,100488.38
2023-01-01T05:57:36.086Z,100509.72
2023-01-01T06:00:40.639Z,100530.56
2023-01-01T06:03:45.588Z,100538.66
2023-01-01T06:06:50.259Z,100528.88
2023-01-01T06:09:54.669Z,100555.63
2023-01-01T06:12:59.426Z,100557.94
2023-01-01T06:16:05.155Z,100570.59
2023-01-01T06:19:09.424Z,100592.06
2023-01-01T06:22:13.670Z,100591.22
2023-01-01T06:25:17.983Z,100605.97
2023-01-01T06:28:22.295Z,100608.78
2023-01-01T06:31:28.394Z,100601.81
2023-01-01T06:34:33.085Z,100606.16
2023-01-01T06:37:37.027Z,100624.91
2023-01-01T06:40:41.558Z,100635.50
2023-01-01T06:43:46.771Z,100633.28
2023-01-01T06:46:51.433Z,100638.53
2023-01-01T06:49:55.804Z,100652.81
2023-01-01T06:52:59.765Z,100623.97
2023-01-01T06:56:05.165Z,100637.03
2023-01-01T06:59:09.320Z,100655.22
2023-01-01T07:02:13.639Z,100656.03
2023-01-01T07:05:18.197Z,100663.31
2023-01-01T07:08:22.320Z,100652.09
2023-01-01T07:11:28.067Z,100668.81
2023-01-01T07:14:32.315Z,100664.06
2023-01-01T07:17:36.786Z,100661.59
2023-01-01T07:20:40.805Z,100665.31
2023-01-01T07:23:45.238Z,100666.03
2023-01-01T07:26:49.301Z,100670.41
2023-01-01T07:29:54.016Z,100668.47
2023-01-01T07:32:58.258Z,100680.16
2023-01-01T07:36:02.509Z,100678.72
2023-01-01T07:39:06.652Z,100676.97
2023-01-01T07:42:11.110Z,100685.69
2023-01-01T07:45:15.786Z,100688.41
2023-01-01T07:48:20.346Z,100682.91
2023-01-01T07:51:25.101Z,100667.72
2023-01-01T07:54:29.606Z,100668.47
2023-01-01T07:57:33.968Z,100663.03
2023-01-01T08:00:38.934Z,100646.19
2023-01-01T08:03:43.345Z,100649.06
2023-01-01T08:06:47.786Z,100637.91
2023-01-01T08:09:51.932Z,100646.66
2023-01-01T08:13:05.112Z,100653.94
2023-01-01T08:16:09.876Z,100657.69
2023-01-01T08:19:14.185Z,100653.94
2023-01-01T08:22:18.381Z,100650.88
2023-01-01T08:25:22.882Z,100653.94
2023-01-01T08:28:28.389Z,100651.75
2023-01-01T08:31:33.282Z,100646.50
2023-01-01T08:34:38.332Z,100656.66
2023-01-01T08:37:42.715Z,100660.06
2023-01-01T08:40:47.033Z,100662.16
2023-01-01T08:43:51.442Z,100658.03
2023-01-01T08:46:56.109Z,100652.78
2023-01-01T08:50:00.583Z,100662.97
2023-01-01T08:53:06.315Z,100690.19
2023-01-01T08:56:13.075Z,100688.06
2023-01-01T08:59:17.341Z,100692.47
2023-01-01T09:02:21.435Z,100697.06
2023-01-01T09:05:26.109Z,100710.72
2023-01-01T09:08:30.521Z,100701.28
2023-01-01T09:11:34.693Z,100724.91
2023-01-01T09:14:38.981Z,100734.38
2023-01-01T09:17:43.271Z,100722.31
2023-01-01T09:20:48.092Z,100731.84
2023-01-01T09:23:52.327Z,100743.19
2023-01-01T09:26:56.400Z,100753.47
2023-01-01T09:30:00.962Z,100786.13
2023-01-01T09:33:05.750Z,100801.38
2023-01-01T09:36:29.595Z,100807.97
2023-01-01T09:39:34.207Z,100803.16
2023-01-01T09:42:54.989Z,100807.31
2023-01-01T09:46:07.247Z,100812.59
2023-01-01T09:49:28.333Z,100789.19
2023-01-01T09:52:53.903Z,100807.94
2023-01-01T09:56:01.695Z,100825.50
2023-01-01T09:59:10.735Z,100820.91
2023-01-01T10:02:51.733Z,100829.19
2023-01-01T10:06:24.830Z,100836.38
2023-01-01T10:09:59.518Z,100849.69
2023-01-01T10:13:36.664Z,100850.59
2023-01-01T10:16:51.622Z,100854.34
2023-01-01T10:20:02.010Z,100844.88
2023-01-01T10:23:23.805Z,100856.97
2023-01-01T10:26:31.390Z,100850.75
2023-01-01T10:29:48.175Z,100877.06
2023-01-01T10:32:55.419Z,100881.25
2023-01-01T10:36:00.660Z,100882.88
2023-01-01T10:39:05.582Z,100873.59
2023-01-01T10:42:16.037Z,100854.47
2023-01-01T10:45:49.145Z,100860.81
2023-01-01T10:49:12.726Z,100882.16
2023-01-01T10:52:17.463Z,100882.59
2023-01-01T10:55:31.606Z,100874.34
2023-01-01T10:58:55.928Z,100861.91
2023-01-01T11:02:17.266Z,100881.84
2023-01-01T11:05:22.869Z,100871.59
2023-01-01T11:08:29.881Z,100886.97
2023-01-01T11:11:45.833Z,100874.69
2023-01-01T11:14:54.441Z,100883.59
2023-01-01T11:18:13.155Z,100887.84
2023-01-01T11:21:26.633Z,100872.44
2023-01-01T11:24:33.799Z,100881.59
2023-01-01T11:27:37.946Z,100877.72
2023-01-01T11:30:57.454Z,100888.41
2023-01-01T11:34:14.633Z,100900.97
2023-01-01T11:37:38.187Z,100904.28
2023-01-01T11:40:49.607Z,100911.69
2023-01-01T11:43:53.826Z,100915.59
2023-01-01T11:46:59.116Z,100915.75
2023-01-01T11:50:34.256Z,100921.00
2023-01-01T11:53:41.862Z,100913.56
2023-01-01T11:56:51.796Z,100917.59
2023-01-01T12:00:04.355Z,100918.97
2023-01-01T12:03:25.541Z,100928.34
2023-01-01T12:06:52.689Z,100928.78
2023-01-01T12:10:23.300Z,100911.97
2023-01-01T12:13:35.181Z,100920.91
2023-01-01T12:17:09.844Z,100913.41
2023-01-01T12:20:26.980Z,100927.09
2023-01-01T12:23:35.600Z,100942.19
2023-01-01T12:27:11.354Z,100953.88
2023-01-01T12:30:31.273Z,100955.53
2023-01-01T12:34:16.365Z,100962.75
2023-01-01T12:37:47.338Z,100967.72
2023-01-01T12:40:57.679Z,100967.72
2023-01-01T12:44:34.579Z,100982.81
2023-01-01T12:47:47.235Z,100990.84
2023-01-01T12:51:13.414Z,100989.59
2023-01-01T12:54:27.229Z,100989.31
2023-01-01T12:58:13.220Z,100970.59
2023-01-01T13:01:33.073Z,100995.88
2023-01-01T13:04:39.843Z,100996.88
2023-01-01T13:07:48.890Z,100991.31
2023-01-01T13:10:57.542Z,100994.31
2023-01-01T13:14:02.166Z,100996.16
2023-01-01T13:17:17.995Z,101003.22
2023-01-01T13:20:26.639Z,100999.59
2023-01-01T13:23:34.971Z,100990.97
2023-01-01T13:26:41.192Z,100994.88
2023-01-01T13:29:47.222Z,100989.53
2023-01-01T13:33:29.965Z,101005.53
2023-01-01T13:36:34.212Z,101038.13
2023-01-01T13:40:01.489Z,101041.97
2023-01-01T13:43:19.042Z,101022.00
2023-01-01T13:46:44.233Z,101039.41
2023-01-01T13:50:20.159Z,101051.94
2023-01-01T13:54:05.533Z,101062.84
2023-01-01T13:57:36.627Z,101063.84
2023-01-01T14:01:27.455Z,101060.69
2023-01-01T14:05:05.397Z,101064.38
2023-01-01T14:08:36.937Z,101062.09
2023-01-01T14:11:41.920Z,101056.78
2023-01-01T14:14:47.609Z,101073.91
2023-01-01T14:17:56.353Z,101072.19
2023-01-01T14:21:01.688Z,101067.50
2023-01-01T14:24:08.539Z,101077.16
2023-01-01T14:27:21.848Z,101068.50
2023-01-01T14:30:26.764Z,101084.72
2023-01-01T14:33:33.668Z,101082.84
2023-01-01T14:36:38.047Z,101107.72
2023-01-01T14:39:42.443Z,101089.41
2023-01-01T14:42:49.124Z,101107.16
2023-01-01T14:45:53.834Z,101117.09
2023-01-01T14:49:07.615Z,101117.88
2023-01-01T14:52:28.927Z,101122.50
2023-01-01T14:55:46.270Z,101127.88
2023-01-01T14:58:50.997Z,101121.66
2023-01-01T15:02:03.789Z,101139.22
2023-01-01T15:05:34.793Z,101153.38
2023-01-01T15:08:40.238Z,101160.63
2023-01-01T15:11:44.604Z,101166.00
2023-01-01T15:14:52.536Z,101175.13
2023-01-01T15:17:56.886Z,101168.19
2023-01-01T15:21:14.254Z,101179.66
2023-01-01T15:24:22.091Z,101185.88
2023-01-01T15:27:30.357Z,101189.66
2023-01-01T15:30:36.096Z,101188.91
2023-01-01T15:33:48.235Z,101192.44
2023-01-01T15:36:55.025Z,101187.38
2023-01-01T15:40:21.243Z,101179.56
2023-01-01T15:43:29.739Z,101192.88
2023-01-01T15:46:34.550Z,101186.06
2023-01-01T15:49:39.683Z,101200.34
2023-01-01T15:52:46.320Z,101199.88
2023-01-01T15:56:03.787Z,101199.88
2023-01-01T15:59:33.421Z,101203.69
2023-01-01T16:02:39.226Z,101212.50
2023-01-01T16:05:49.743Z,101215.06
2023-01-01T16:08:53.952Z,101216.06
2023-01-01T16:11:59.424Z,101230.22
2023-01-01T16:15:04.523Z,101235.66
2023-01-01T16:18:12.614Z,101235.03
2023-01-01T16:21:17.334Z,101242.97
2023-01-01T16:24:21.981Z,101255.19
2023-01-01T16:27:26.174Z,101253.47
2023-01-01T16:30:30.345Z,101240.41
2023-01-01T16:33:35.499Z,101240.28
2023-01-01T16:36:40.387Z,101227.88
2023-01-01T16:39:44.995Z,101222.75
2023-01-01T16:42:49.069Z,101211.44
2023-01-01T16:45:53.752Z,101218.34
2023-01-01T16:48:58.211Z,101225.53
2023-01-01T16:52:03.339Z,101223.09
2023-01-01T16:55:07.949Z,101214.16
2023-01-01T16:58:48.053Z,101216.00
2023-01-01T17:01:36.799Z,101220.66
2023-01-01T17:04:41.275Z,101213.91
2023-01-01T17:07:47.965Z,101206.19
2023-01-01T17:11:18.154Z,101211.44
2023-01-01T17:14:22.499Z,101222.78
2023-01-01T17:17:26.746Z,101227.13
2023-01-01T17:20:30.977Z,101223.63
2023-01-01T17:23:41.865Z,101227.84
2023-01-01T17:26:52.707Z,101223.56
2023-01-01T17:29:56.841Z,101225.16
2023-01-01T17:33:01.151Z,101236.44
2023-01-01T17:36:06.910Z,101238.22
2023-01-01T17:39:15.890Z,101237.34
2023-01-01T17:42:20.842Z,101243.53
2023-01-01T17:45:25.662Z,101240.91
2023-01-01T17:48:30.002Z,101245.31
2023-01-01T17:51:34.096Z,101248.81
2023-01-01T17:54:38.535Z,101255.59
2023-01-01T17:57:43.831Z,101256.28
2023-01-01T18:00:48.752Z,101257.38
2023-01-01T18:04:08.248Z,101264.34
2023-01-01T18:07:13.752Z,101266.91
2023-01-01T18:10:17.874Z,101265.16
2023-01-01T18:13:22.055Z,101272.25
2023-01-01T18:16:27.406Z,101284.44
2023-01-01T18:19:32.473Z,101284.31
2023-01-01T18:22:42.720Z,101282.75
2023-01-01T18:25:47.658Z,101283.59
2023-01-01T18:28:58.648Z,101275.66
2023-01-01T18:32:03.989Z,101271.38
2023-01-01T18:35:09.165Z,101282.75
2023-01-01T18:38:14.292Z,101273.16
2023-01-01T18:41:43.171Z,101277.63
2023-01-01T18:44:47.801Z,101281.13
2023-01-01T18:47:52.358Z,101277.56
2023-01-01T18:50:57.494Z,101280.28
2023-01-01T18:54:15.648Z,101288.16
2023-01-01T18:57:29.242Z,101289.69
2023-01-01T19:00:36.455Z,101284.38
2023-01-01T19:03:41.972Z,101286.03
2023-01-01T19:06:46.943Z,101286.03
2023-01-01T19:09:57.210Z,101285.13
2023-01-01T19:13:24.282Z,101285.91
2023-01-01T19:16:30.506Z,101292.84
2023-01-01T19:19:40.622Z,101291.06
2023-01-01T19:22:45.829Z,101291.97
2023-01-01T19:25:53.448Z,101288.38
2023-01-01T19:29:15.373Z,101290.88
2023-01-01T19:32:21.325Z,101279.69
2023-01-01T19:35:25.784Z,101283.19
2023-01-01T19:38:30.148Z,101286.78
2023-01-01T19:41:35.519Z,101284.09
2023-01-01T19:44:40.120Z,101287.50
2023-01-01T19:47:45.472Z,101282.13
2023-01-01T19:50:49.960Z,101291.91
2023-01-01T19:53:55.501Z,101293.63
2023-01-01T19:56:59.729Z,101296.06
2023-01-01T20:00:04.810Z,101286.59
2023-01-01T20:03:51.403Z,101281.13
2023-01-01T20:06:36.350Z,101275.94
2023-01-01T20:09:41.033Z,101269.06
2023-01-01T20:12:45.869Z,101265.56
2023-01-01T20:15:50.102Z,101268.97
2023-01-01T20:18:54.395Z,101268.00
2023-01-01T20:22:17.724Z,101252.25
2023-01-01T20:25:22.255Z,101254.94
2023-01-01T20:28:45.510Z,101254.00
2023-01-01T20:31:53.060Z,101248.75
2023-01-01T20:34:57.965Z,101257.38
2023-01-01T20:38:03.566Z,101263.53
2023-01-01T20:41:25.639Z,101261.59
2023-01-01T20:44:30.537Z,101268.59
2023-01-01T20:47:36.620Z,101278.09
2023-01-01T20:50:41.049Z,101279.03
2023-01-01T20:53:45.481Z,101272.06
2023-01-01T20:56:50.237Z,101268.59
2023-01-01T20:59:54.794Z,101281.53
2023-01-01T21:02:58.795Z,101277.25
2023-01-01T21:06:04.165Z,101278.09
2023-01-01T21:09:08.926Z,101284.13
2023-01-01T21:12:13.582Z,101280.50
2023-01-01T21:15:19.923Z,101291.91
2023-01-01T21:18:24.690Z,101291.91
2023-01-01T21:21:51.939Z,101281.44
2023-01-01T21:25:16.912Z,101276.25
2023-01-01T21:28:22.368Z,101276.31
2023-01-01T21:31:36.785Z,101284.28
2023-01-01T21:34:44.489Z,101280.88
2023-01-01T21:37:54.100Z,101281.91
2023-01-01T21:41:03.790Z,101288.06
2023-01-01T21:44:14.271Z,101285.31
2023-01-01T21:47:26.036Z,101280.13
2023-01-01T21:50:30.256Z,101279.16
2023-01-01T21:53:36.213Z,101266.03
2023-01-01T21:56:42.946Z,101264.19
2023-01-01T21:59:48.411Z,101266.03
2023-01-01T22:02:53.355Z,101253.81
2023-01-01T22:05:59.614Z,101264.31
2023-01-01T22:09:16.520Z,101267.81
2023-01-01T22:12:28.755Z,101277.44
2023-01-01T22:15:40.677Z,101283.63
2023-01-01T22:18:45.587Z,101293.25
2023-01-01T22:21:52.091Z,101291.50
2023-01-01T22:25:05.506Z,101305.56
2023-01-01T22:28:23.538Z,101308.91
2023-01-01T22:31:32.391Z,101303.78
2023-01-01T22:34:37.184Z,101301.16
2023-01-01T22:37:42.687Z,101295.97
2023-01-01T22:40:50.632Z,101298.53
2023-01-01T22:44:04.204Z,101305.50
2023-01-01T22:47:17.400Z,101308.97
2023-01-01T22:50:27.594Z,101301.16
2023-01-01T22:53:31.855Z,101290.56
2023-01-01T22:56:36.439Z,101299.19
2023-01-01T22:59:40.661Z,101294.84
2023-01-01T23:02:45.864Z,101285.06
2023-01-01T23:05:50.352Z,101283.34
2023-01-01T23:08:55.225Z,101271.22
2023-01-01T23:11:59.482Z,101272.84
2023-01-01T23:15:22.994Z,101263.28
2023-01-01T23:18:35.867Z,101244.22
2023-01-01T23:21:42.338Z,101247.63
2023-01-01T23:24:47.254Z,101245.78
2023-01-01T23:27:53.007Z,101218.47
2023-01-01T23:31:00.613Z,101209.59
2023-01-01T23:34:05.828Z,101195.50
2023-01-01T23:37:11.704Z,101185.84
2023-01-01T23:40:15.953Z,101189.19
2023-01-01T23:43:20.179Z,101175.16
2023-01-01T23:46:24.819Z,101169.13
2023-01-01T23:49:32.104Z,101147.25
2023-01-01T23:52:36.794Z,101130.88
2023-01-01T23:55:41.910Z,101125.03
2023-01-01T23:58:46.292Z,101117.94
